sensor_id;sensor_type;location;lat;lon;timestamp;pressure;altitude;pressure_sealevel;temperature;humidity
6393;BME280;3229;42.674;23.282;2023-08-17T00:00:03;94712.25;;;23.00;77.90
6393;BME280;3229;42.674;23.282;2023-08-17T00:02:33;94720.72;;;22.96;78.54
6393;BME280;3229;42.674;23.282;2023-08-17T00:05:02;94724.75;;;22.92;79.42
6393;BME280;3229;42.674;23.282;2023-08-17T00:07:28;94719.78;;;22.84;80.74
6393;BME280;3229;42.674;23.282;2023-08-17T00:09:55;94726.22;;;22.81;81.42
6393;BME280;3229;42.674;23.282;2023-08-17T00:12:22;94728.69;;;22.76;82.13
6393;BME280;3229;42.674;23.282;2023-08-17T00:14:49;94718.06;;;22.71;82.58
6393;BME280;3229;42.674;23.282;2023-08-17T00:17:15;94726.91;;;22.70;83.01
6393;BME280;3229;42.674;23.282;2023-08-17T00:19:42;94707.75;;;22.58;83.02
6393;BME280;3229;42.674;23.282;2023-08-17T00:22:10;94725.56;;;22.61;83.84
6393;BME280;3229;42.674;23.282;2023-08-17T00:24:37;94722.56;;;22.64;83.56
6393;BME280;3229;42.674;23.282;2023-08-17T00:27:06;94727.97;;;22.62;83.67
6393;BME280;3229;42.674;23.282;2023-08-17T00:29:33;94728.59;;;22.58;83.90
6393;BME280;3229;42.674;23.282;2023-08-17T00:32:00;94728.25;;;22.54;84.32
6393;BME280;3229;42.674;23.282;2023-08-17T00:34:27;94652.31;;;22.05;84.07
6393;BME280;3229;42.674;23.282;2023-08-17T00:36:54;94723.69;;;22.43;84.76
6393;BME280;3229;42.674;23.282;2023-08-17T00:39:22;94721.88;;;22.43;84.33
6393;BME280;3229;42.674;23.282;2023-08-17T00:41:49;94717.28;;;22.39;84.17
6393;BME280;3229;42.674;23.282;2023-08-17T00:44:16;94718.31;;;22.38;84.04
6393;BME280;3229;42.674;23.282;2023-08-17T00:46:43;94713.50;;;22.35;83.96
6393;BME280;3229;42.674;23.282;2023-08-17T00:49:10;94715.91;;;22.36;83.38
6393;BME280;3229;42.674;23.282;2023-08-17T00:51:38;94717.31;;;22.32;83.22
6393;BME280;3229;42.674;23.282;2023-08-17T00:54:05;94718.34;;;22.31;83.12
6393;BME280;3229;42.674;23.282;2023-08-17T00:56:33;94711.38;;;22.25;82.74
6393;BME280;3229;42.674;23.282;2023-08-17T00:59:00;94711.38;;;22.25;82.33
6393;BME280;3229;42.674;23.282;2023-08-17T01:01:27;94712.78;;;22.21;81.90
6393;BME280;3229;42.674;23.282;2023-08-17T01:03:54;94712.19;;;22.19;81.62
6393;BME280;3229;42.674;23.282;2023-08-17T01:06:21;94702.63;;;22.13;81.38
6393;BME280;3229;42.674;23.282;2023-08-17T01:08:48;94714.22;;;22.10;80.79
6393;BME280;3229;42.674;23.282;2023-08-17T01:11:22;94710.41;;;22.06;79.65
6393;BME280;3229;42.674;23.282;2023-08-17T01:13:57;94711.84;;;22.02;78.68
6393;BME280;3229;42.674;23.282;2023-08-17T01:16:27;94712.22;;;22.05;78.35
6393;BME280;3229;42.674;23.282;2023-08-17T01:18:57;94712.06;;;22.00;77.49
6393;BME280;3229;42.674;23.282;2023-08-17T01:21:29;94707.25;;;21.97;76.65
6393;BME280;3229;42.674;23.282;2023-08-17T01:24:05;94710.09;;;21.96;75.66
6393;BME280;3229;42.674;23.282;2023-08-17T01:26:32;94699.44;;;22.04;75.39
6393;BME280;3229;42.674;23.282;2023-08-17T01:28:58;94710.41;;;22.06;75.07
6393;BME280;3229;42.674;23.282;2023-08-17T01:31:29;94634.78;;;21.56;74.62
6393;BME280;3229;42.674;23.282;2023-08-17T01:34:03;94703.22;;;22.01;74.14
6393;BME280;3229;42.674;23.282;2023-08-17T01:36:33;94691.84;;;21.96;74.31
6393;BME280;3229;42.674;23.282;2023-08-17T01:39:01;94694.06;;;21.92;73.86
6393;BME280;3229;42.674;23.282;2023-08-17T01:41:30;94703.28;;;21.95;73.53
6393;BME280;3229;42.674;23.282;2023-08-17T01:43:58;94700.47;;;21.96;73.08
6393;BME280;3229;42.674;23.282;2023-08-17T01:46:30;94704.28;;;21.94;73.02
6393;BME280;3229;42.674;23.282;2023-08-17T01:48:57;94698.06;;;21.95;73.62
6393;BME280;3229;42.674;23.282;2023-08-17T01:51:24;94705.09;;;21.94;73.39
6393;BME280;3229;42.674;23.282;2023-08-17T01:53:51;94706.69;;;21.95;73.52
6393;BME280;3229;42.674;23.282;2023-08-17T01:56:18;94710.91;;;21.90;73.44
6393;BME280;3229;42.674;23.282;2023-08-17T01:58:46;94701.72;;;21.87;73.36
6393;BME280;3229;42.674;23.282;2023-08-17T02:01:13;94700.91;;;21.87;73.11
6393;BME280;3229;42.674;23.282;2023-08-17T02:03:40;94701.50;;;21.89;72.93
6393;BME280;3229;42.674;23.282;2023-08-17T02:06:06;94692.88;;;21.88;72.95
6393;BME280;3229;42.674;23.282;2023-08-17T02:08:33;94697.13;;;21.83;73.19
6393;BME280;3229;42.674;23.282;2023-08-17T02:11:00;94677.75;;;21.72;73.13
6393;BME280;3229;42.674;23.282;2023-08-17T02:13:27;94701.94;;;21.86;73.34
6393;BME280;3229;42.674;23.282;2023-08-17T02:15:55;94687.56;;;21.76;73.66
6393;BME280;3229;42.674;23.282;2023-08-17T02:18:22;94695.94;;;21.78;73.69
6393;BME280;3229;42.674;23.282;2023-08-17T02:20:49;94701.53;;;21.82;73.72
6393;BME280;3229;42.674;23.282;2023-08-17T02:23:15;94690.16;;;21.76;73.71
6393;BME280;3229;42.674;23.282;2023-08-17T02:25:42;94676.75;;;21.73;73.88
6393;BME280;3229;42.674;23.282;2023-08-17T02:28:09;94697.34;;;21.81;73.71
6393;BME280;3229;42.674;23.282;2023-08-17T02:30:36;94702.16;;;21.77;73.89
6393;BME280;3229;42.674;23.282;2023-08-17T02:33:04;94694.34;;;21.77;74.21
6393;BME280;3229;42.674;23.282;2023-08-17T02:35:31;94699.16;;;21.74;74.48
6393;BME280;3229;42.674;23.282;2023-08-17T02:37:58;94674.19;;;21.60;74.93
6393;BME280;3229;42.674;23.282;2023-08-17T02:40:24;94691.97;;;21.69;75.19
6393;BME280;3229;42.674;23.282;2023-08-17T02:42:51;94688.34;;;21.70;75.15
6393;BME280;3229;42.674;23.282;2023-08-17T02:45:18;94695.78;;;21.67;75.22
6393;BME280;3229;42.674;23.282;2023-08-17T02:47:45;94690.22;;;21.63;75.42
6393;BME280;3229;42.674;23.282;2023-08-17T02:50:13;94689.19;;;21.64;75.50
6393;BME280;3229;42.674;23.282;2023-08-17T02:52:39;94684.59;;;21.60;75.34
6393;BME280;3229;42.674;23.282;2023-08-17T02:55:07;94692.41;;;21.60;75.34
6393;BME280;3229;42.674;23.282;2023-08-17T02:57:34;94692.41;;;21.60;75.37
6393;BME280;3229;42.674;23.282;2023-08-17T03:00:00;94682.19;;;21.58;75.52
6393;BME280;3229;42.674;23.282;2023-08-17T03:02:27;94688.41;;;21.57;75.39
6393;BME280;3229;42.674;23.282;2023-08-17T03:04:54;94689.81;;;21.53;75.55
6393;BME280;3229;42.674;23.282;2023-08-17T03:07:22;94689.03;;;21.52;75.79
6393;BME280;3229;42.674;23.282;2023-08-17T03:09:49;94688.81;;;21.54;75.96
6393;BME280;3229;42.674;23.282;2023-08-17T03:12:15;94695.03;;;21.53;76.16
6393;BME280;3229;42.674;23.282;2023-08-17T03:14:42;94687.44;;;21.51;76.28
6393;BME280;3229;42.674;23.282;2023-08-17T03:17:09;94698.84;;;21.50;76.32
6393;BME280;3229;42.674;23.282;2023-08-17T03:19:36;94690.66;;;21.47;76.67
6393;BME280;3229;42.674;23.282;2023-08-17T03:22:02;94685.84;;;21.44;76.66
6393;BME280;3229;42.674;23.282;2023-08-17T03:24:31;94691.06;;;21.44;76.82
6393;BME280;3229;42.674;23.282;2023-08-17T03:26:57;94694.84;;;21.41;76.83
6393;BME280;3229;42.674;23.282;2023-08-17T03:29:25;94692.47;;;21.46;77.01
6393;BME280;3229;42.674;23.282;2023-08-17T03:31:52;94696.44;;;21.49;76.96
6393;BME280;3229;42.674;23.282;2023-08-17T03:36:45;94692.47;;;21.40;76.83
6393;BME280;3229;42.674;23.282;2023-08-17T03:39:12;94691.88;;;21.38;76.55
6393;BME280;3229;42.674;23.282;2023-08-17T03:41:41;94700.06;;;21.41;76.74
6393;BME280;3229;42.674;23.282;2023-08-17T03:44:07;94701.47;;;21.44;76.58
6393;BME280;3229;42.674;23.282;2023-08-17T03:46:35;94692.25;;;21.41;76.67
6393;BME280;3229;42.674;23.282;2023-08-17T03:49:01;94702.88;;;21.46;76.48
6393;BME280;3229;42.674;23.282;2023-08-17T03:51:28;94709.06;;;21.45;77.05
6393;BME280;3229;42.674;23.282;2023-08-17T03:53:55;94700.06;;;21.41;76.94
6393;BME280;3229;42.674;23.282;2023-08-17T03:56:22;94712.28;;;21.41;76.78
6393;BME280;3229;42.674;23.282;2023-08-17T03:58:52;94713.06;;;21.41;76.48
6393;BME280;3229;42.674;23.282;2023-08-17T04:01:19;94717.91;;;21.38;76.40
6393;BME280;3229;42.674;23.282;2023-08-17T04:03:46;94724.09;;;21.37;76.44
6393;BME280;3229;42.674;23.282;2023-08-17T04:06:12;94723.72;;;21.33;76.60
6393;BME280;3229;42.674;23.282;2023-08-17T04:08:39;94726.50;;;21.32;76.66
6393;BME280;3229;42.674;23.282;2023-08-17T04:11:06;94681.72;;;20.96;76.51
6393;BME280;3229;42.674;23.282;2023-08-17T04:13:32;94730.47;;;21.27;76.23
6393;BME280;3229;42.674;23.282;2023-08-17T04:16:01;94726.06;;;21.28;75.96
6393;BME280;3229;42.674;23.282;2023-08-17T04:18:27;94722.28;;;21.30;74.61
6393;BME280;3229;42.674;23.282;2023-08-17T04:20:54;94716.88;;;21.39;75.47
6393;BME280;3229;42.674;23.282;2023-08-17T04:23:21;94724.69;;;21.39;75.96
6393;BME280;3229;42.674;23.282;2023-08-17T04:25:48;94699.09;;;21.29;75.99
6393;BME280;3229;42.674;23.282;2023-08-17T04:28:15;94693.06;;;21.15;76.33
6393;BME280;3229;42.674;23.282;2023-08-17T04:30:41;94719.09;;;21.35;76.42
6393;BME280;3229;42.674;23.282;2023-08-17T04:33:10;94710.69;;;21.40;76.71
6393;BME280;3229;42.674;23.282;2023-08-17T04:35:38;94723.06;;;21.44;76.43
6393;BME280;3229;42.674;23.282;2023-08-17T04:38:05;94724.66;;;21.52;76.60
6393;BME280;3229;42.674;23.282;2023-08-17T04:40:32;94720.44;;;21.64;76.12
6393;BME280;3229;42.674;23.282;2023-08-17T04:42:59;94719.16;;;21.80;74.99
6393;BME280;3229;42.674;23.282;2023-08-17T04:45:26;94720.88;;;21.99;74.06
6393;BME280;3229;42.674;23.282;2023-08-17T04:47:53;94718.00;;;22.21;73.42
6393;BME280;3229;42.674;23.282;2023-08-17T04:50:21;94714.91;;;22.37;72.84
6393;BME280;3229;42.674;23.282;2023-08-17T04:52:48;94716.16;;;22.60;72.08
6393;BME280;3229;42.674;23.282;2023-08-17T04:55:15;94699.41;;;22.74;71.46
6393;BME280;3229;42.674;23.282;2023-08-17T04:57:41;94717.16;;;23.15;69.94
6393;BME280;3229;42.674;23.282;2023-08-17T05:00:10;94717.75;;;23.36;69.92
6393;BME280;3229;42.674;23.282;2023-08-17T05:02:38;94722.00;;;23.73;69.17
6393;BME280;3229;42.674;23.282;2023-08-17T05:05:05;94723.75;;;24.28;67.41
6393;BME280;3229;42.674;23.282;2023-08-17T05:07:34;94716.59;;;24.65;66.10
6393;BME280;3229;42.674;23.282;2023-08-17T05:10:01;94718.09;;;24.73;64.84
6393;BME280;3229;42.674;23.282;2023-08-17T05:12:28;94719.13;;;24.84;64.83
6393;BME280;3229;42.674;23.282;2023-08-17T05:14:55;94718.16;;;25.08;63.85
6393;BME280;3229;42.674;23.282;2023-08-17T05:17:22;94720.44;;;25.28;62.98
6393;BME280;3229;42.674;23.282;2023-08-17T05:19:48;94720.88;;;25.48;62.96
6393;BME280;3229;42.674;23.282;2023-08-17T05:22:15;94722.88;;;25.82;62.47
6393;BME280;3229;42.674;23.282;2023-08-17T05:24:43;94717.22;;;26.13;61.40
6393;BME280;3229;42.674;23.282;2023-08-17T05:27:10;94722.22;;;26.43;59.90
6393;BME280;3229;42.674;23.282;2023-08-17T05:29:37;94725.31;;;26.69;59.21
6393;BME280;3229;42.674;23.282;2023-08-17T05:32:04;94730.34;;;26.87;56.93
6393;BME280;3229;42.674;23.282;2023-08-17T05:34:31;94726.69;;;27.05;56.75
6393;BME280;3229;42.674;23.282;2023-08-17T05:36:58;94729.84;;;27.41;56.01
6393;BME280;3229;42.674;23.282;2023-08-17T05:39:25;94730.59;;;27.75;54.14
6393;BME280;3229;42.674;23.282;2023-08-17T05:41:54;94730.94;;;28.06;54.29
6393;BME280;3229;42.674;23.282;2023-08-17T05:44:20;94738.47;;;28.41;52.77
6393;BME280;3229;42.674;23.282;2023-08-17T05:46:47;94739.47;;;28.62;51.99
6393;BME280;3229;42.674;23.282;2023-08-17T05:49:14;94734.44;;;28.92;50.53
6393;BME280;3229;42.674;23.282;2023-08-17T05:51:41;94738.06;;;29.13;50.37
6393;BME280;3229;42.674;23.282;2023-08-17T05:54:08;94732.47;;;29.42;48.95
6393;BME280;3229;42.674;23.282;2023-08-17T05:56:34;94733.09;;;29.54;47.59
6393;BME280;3229;42.674;23.282;2023-08-17T05:59:03;94739.25;;;29.70;47.72
6393;BME280;3229;42.674;23.282;2023-08-17T06:01:30;94747.03;;;29.97;46.80
6393;BME280;3229;42.674;23.282;2023-08-17T06:03:56;94733.41;;;30.15;47.00
6393;BME280;3229;42.674;23.282;2023-08-17T06:06:23;94687.44;;;30.06;45.94
6393;BME280;3229;42.674;23.282;2023-08-17T06:08:51;94743.53;;;30.64;45.06
6393;BME280;3229;42.674;23.282;2023-08-17T06:11:18;94748.59;;;30.91;44.27
6393;BME280;3229;42.674;23.282;2023-08-17T06:13:45;94745.97;;;31.02;44.12
6393;BME280;3229;42.674;23.282;2023-08-17T06:16:13;94752.28;;;31.21;43.72
6393;BME280;3229;42.674;23.282;2023-08-17T06:18:40;94739.88;;;31.21;44.16
6393;BME280;3229;42.674;23.282;2023-08-17T06:21:07;94743.63;;;31.31;43.44
6393;BME280;3229;42.674;23.282;2023-08-17T06:23:33;94743.34;;;31.37;43.90
6393;BME280;3229;42.674;23.282;2023-08-17T06:26:00;94742.50;;;31.47;44.01
6393;BME280;3229;42.674;23.282;2023-08-17T06:28:27;94739.31;;;31.55;44.87
6393;BME280;3229;42.674;23.282;2023-08-17T06:30:54;94739.53;;;31.79;44.96
6393;BME280;3229;42.674;23.282;2023-08-17T06:33:22;94740.03;;;31.96;45.02
6393;BME280;3229;42.674;23.282;2023-08-17T06:35:49;94748.41;;;32.19;44.15
6393;BME280;3229;42.674;23.282;2023-08-17T06:38:16;94755.50;;;32.39;44.18
6393;BME280;3229;42.674;23.282;2023-08-17T06:40:43;94745.94;;;32.33;43.83
6393;BME280;3229;42.674;23.282;2023-08-17T06:43:09;94749.59;;;32.47;43.59
6393;BME280;3229;42.674;23.282;2023-08-17T06:45:36;94760.66;;;32.59;44.08
6393;BME280;3229;42.674;23.282;2023-08-17T06:48:03;94760.41;;;32.61;43.81
6393;BME280;3229;42.674;23.282;2023-08-17T06:50:31;94753.28;;;32.56;43.62
6393;BME280;3229;42.674;23.282;2023-08-17T06:52:58;94752.16;;;32.62;43.41
6393;BME280;3229;42.674;23.282;2023-08-17T06:55:25;94757.75;;;32.61;43.40
6393;BME280;3229;42.674;23.282;2023-08-17T06:57:52;94752.25;;;32.52;43.61
6393;BME280;3229;42.674;23.282;2023-08-17T07:00:20;94730.31;;;32.36;43.28
6393;BME280;3229;42.674;23.282;2023-08-17T07:02:47;94745.38;;;32.46;42.49
6393;BME280;3229;42.674;23.282;2023-08-17T07:05:14;94751.34;;;32.12;42.86
6393;BME280;3229;42.674;23.282;2023-08-17T07:07:43;94747.97;;;31.96;43.55
6393;BME280;3229;42.674;23.282;2023-08-17T07:10:10;94755.03;;;32.11;42.63
6393;BME280;3229;42.674;23.282;2023-08-17T07:12:37;94754.19;;;32.26;41.95
6393;BME280;3229;42.674;23.282;2023-08-17T07:15:04;94755.19;;;32.45;41.73
6393;BME280;3229;42.674;23.282;2023-08-17T07:17:32;94740.88;;;32.46;41.98
6393;BME280;3229;42.674;23.282;2023-08-17T07:19:59;94750.56;;;32.66;41.12
6393;BME280;3229;42.674;23.282;2023-08-17T07:22:26;94745.66;;;32.84;41.10
6393;BME280;3229;42.674;23.282;2023-08-17T07:24:54;94743.69;;;33.05;40.22
6393;BME280;3229;42.674;23.282;2023-08-17T07:27:21;94744.03;;;32.93;40.10
6393;BME280;3229;42.674;23.282;2023-08-17T07:29:47;94749.72;;;33.10;38.86
6393;BME280;3229;42.674;23.282;2023-08-17T07:32:14;94738.66;;;33.32;36.49
6393;BME280;3229;42.674;23.282;2023-08-17T07:34:41;94735.56;;;33.54;36.09
6393;BME280;3229;42.674;23.282;2023-08-17T07:37:08;94733.25;;;33.71;35.45
6393;BME280;3229;42.674;23.282;2023-08-17T07:39:34;94739.03;;;33.79;35.70
6393;BME280;3229;42.674;23.282;2023-08-17T07:42:03;94750.00;;;33.96;35.11
6393;BME280;3229;42.674;23.282;2023-08-17T07:44:30;94740.44;;;33.95;34.93
6393;BME280;3229;42.674;23.282;2023-08-17T07:46:58;94722.19;;;33.88;34.05
6393;BME280;3229;42.674;23.282;2023-08-17T07:49:25;94734.97;;;33.86;33.81
6393;BME280;3229;42.674;23.282;2023-08-17T07:51:52;94736.47;;;33.92;34.23
6393;BME280;3229;42.674;23.282;2023-08-17T07:54:19;94739.03;;;33.79;34.55
6393;BME280;3229;42.674;23.282;2023-08-17T07:56:45;94728.69;;;33.77;35.22
6393;BME280;3229;42.674;23.282;2023-08-17T07:59:14;94739.09;;;33.74;35.43
6393;BME280;3229;42.674;23.282;2023-08-17T08:01:40;94733.50;;;33.46;36.03
6393;BME280;3229;42.674;23.282;2023-08-17T08:04:07;94734.91;;;33.09;36.96
6393;BME280;3229;42.674;23.282;2023-08-17T08:06:34;94729.72;;;32.94;37.60
6393;BME280;3229;42.674;23.282;2023-08-17T08:09:01;94723.56;;;33.04;37.80
6393;BME280;3229;42.674;23.282;2023-08-17T08:11:27;94720.34;;;33.07;38.03
6393;BME280;3229;42.674;23.282;2023-08-17T08:13:56;94721.44;;;33.01;37.54
6393;BME280;3229;42.674;23.282;2023-08-17T08:16:24;94710.94;;;33.19;37.39
6393;BME280;3229;42.674;23.282;2023-08-17T08:18:51;94726.00;;;33.24;37.14
6393;BME280;3229;42.674;23.282;2023-08-17T08:21:17;94716.72;;;33.27;37.50
6393;BME280;3229;42.674;23.282;2023-08-17T08:23:44;94723.28;;;33.34;37.38
6393;BME280;3229;42.674;23.282;2023-08-17T08:26:11;94725.78;;;33.20;37.68
6393;BME280;3229;42.674;23.282;2023-08-17T08:28:38;94713.34;;;33.21;37.61
6393;BME280;3229;42.674;23.282;2023-08-17T08:31:04;94717.44;;;33.32;37.78
6393;BME280;3229;42.674;23.282;2023-08-17T08:33:33;94708.59;;;33.47;37.77
6393;BME280;3229;42.674;23.282;2023-08-17T08:35:59;94713.59;;;33.49;37.68
6393;BME280;3229;42.674;23.282;2023-08-17T08:38:27;94717.75;;;33.60;37.81
6393;BME280;3229;42.674;23.282;2023-08-17T08:40:54;94713.91;;;33.71;37.47
6393;BME280;3229;42.674;23.282;2023-08-17T08:43:21;94717.91;;;33.68;37.38
6393;BME280;3229;42.674;23.282;2023-08-17T08:45:48;94709.78;;;33.60;37.70
6393;BME280;3229;42.674;23.282;2023-08-17T08:48:16;94727.16;;;33.47;37.86
6393;BME280;3229;42.674;23.282;2023-08-17T08:50:46;94703.63;;;33.35;38.06
6393;BME280;3229;42.674;23.282;2023-08-17T08:53:14;94709.44;;;33.37;37.94
6393;BME280;3229;42.674;23.282;2023-08-17T08:55:47;94703.97;;;33.29;38.22
6393;BME280;3229;42.674;23.282;2023-08-17T08:58:15;94699.97;;;33.31;38.42
6393;BME280;3229;42.674;23.282;2023-08-17T09:00:45;94706.41;;;33.25;38.79
6393;BME280;3229;42.674;23.282;2023-08-17T09:03:14;94704.31;;;33.22;38.72
6393;BME280;3229;42.674;23.282;2023-08-17T09:05:46;94704.34;;;33.17;38.86
6393;BME280;3229;42.674;23.282;2023-08-17T09:08:14;94691.09;;;33.17;38.90
6393;BME280;3229;42.674;23.282;2023-08-17T09:10:42;94682.97;;;33.08;38.70
6393;BME280;3229;42.674;23.282;2023-08-17T09:13:10;94683.69;;;33.14;38.67
6393;BME280;3229;42.674;23.282;2023-08-17T09:15:36;94675.97;;;33.17;38.72
6393;BME280;3229;42.674;23.282;2023-08-17T09:18:05;94677.94;;;33.07;38.59
6393;BME280;3229;42.674;23.282;2023-08-17T09:20:36;94677.38;;;33.10;38.90
6393;BME280;3229;42.674;23.282;2023-08-17T09:23:10;94676.72;;;32.89;39.35
6393;BME280;3229;42.674;23.282;2023-08-17T09:25:39;94662.00;;;32.78;39.27
6393;BME280;3229;42.674;23.282;2023-08-17T09:28:09;94681.59;;;32.82;39.18
6393;BME280;3229;42.674;23.282;2023-08-17T09:30:56;94673.25;;;32.59;39.67
6393;BME280;3229;42.674;23.282;2023-08-17T09:33:24;94669.38;;;32.52;39.60
6393;BME280;3229;42.674;23.282;2023-08-17T09:35:52;94669.72;;;32.35;40.12
6393;BME280;3229;42.674;23.282;2023-08-17T09:38:21;94677.09;;;32.43;39.84
6393;BME280;3229;42.674;23.282;2023-08-17T09:40:46;94666.31;;;32.24;39.96
6393;BME280;3229;42.674;23.282;2023-08-17T09:43:14;94657.63;;;32.18;39.77
6393;BME280;3229;42.674;23.282;2023-08-17T09:45:42;94667.34;;;32.28;39.79
6393;BME280;3229;42.674;23.282;2023-08-17T09:48:14;94660.09;;;32.05;39.52
6393;BME280;3229;42.674;23.282;2023-08-17T09:50:42;94658.28;;;31.95;39.64
6393;BME280;3229;42.674;23.282;2023-08-17T09:53:12;94655.91;;;31.93;39.13
6393;BME280;3229;42.674;23.282;2023-08-17T09:55:41;94652.97;;;31.95;39.45
6393;BME280;3229;42.674;23.282;2023-08-17T09:58:08;94648.94;;;32.13;39.29
6393;BME280;3229;42.674;23.282;2023-08-17T10:00:35;94639.75;;;32.00;38.88
6393;BME280;3229;42.674;23.282;2023-08-17T10:03:03;94647.69;;;32.00;38.87
6393;BME280;3229;42.674;23.282;2023-08-17T10:05:34;94642.41;;;32.00;39.41
6393;BME280;3229;42.674;23.282;2023-08-17T10:08:03;94646.09;;;31.99;38.83
6393;BME280;3229;42.674;23.282;2023-08-17T10:10:35;94636.31;;;31.94;37.88
6393;BME280;3229;42.674;23.282;2023-08-17T10:13:08;94641.91;;;31.93;38.23
6393;BME280;3229;42.674;23.282;2023-08-17T10:15:38;94641.13;;;31.87;38.60
6393;BME280;3229;42.674;23.282;2023-08-17T10:18:14;94640.41;;;31.66;38.35
6393;BME280;3229;42.674;23.282;2023-08-17T10:20:49;94638.84;;;31.65;38.65
6393;BME280;3229;42.674;23.282;2023-08-17T10:23:19;94629.06;;;31.56;38.89
6393;BME280;3229;42.674;23.282;2023-08-17T10:25:49;94622.16;;;31.65;38.86
6393;BME280;3229;42.674;23.282;2023-08-17T10:28:19;94625.03;;;31.79;38.92
6393;BME280;3229;42.674;23.282;2023-08-17T10:30:46;94627.88;;;31.92;38.71
6393;BME280;3229;42.674;23.282;2023-08-17T10:33:14;94627.81;;;32.03;37.88
6393;BME280;3229;42.674;23.282;2023-08-17T10:35:42;94628.16;;;31.86;37.98
6393;BME280;3229;42.674;23.282;2023-08-17T10:38:10;94624.94;;;31.94;37.76
6393;BME280;3229;42.674;23.282;2023-08-17T10:40:40;94616.53;;;31.87;37.69
6393;BME280;3229;42.674;23.282;2023-08-17T10:43:07;94626.53;;;32.00;37.64
6393;BME280;3229;42.674;23.282;2023-08-17T10:45:36;94621.78;;;31.97;37.09
6393;BME280;3229;42.674;23.282;2023-08-17T10:48:26;94616.47;;;31.97;37.41
6393;BME280;3229;42.674;23.282;2023-08-17T10:51:04;94617.09;;;31.84;37.23
6393;BME280;3229;42.674;23.282;2023-08-17T10:53:35;94582.25;;;31.61;37.68
6393;BME280;3229;42.674;23.282;2023-08-17T10:56:10;94612.00;;;31.82;37.59
6393;BME280;3229;42.674;23.282;2023-08-17T10:58:37;94606.97;;;31.96;37.40
6393;BME280;3229;42.674;23.282;2023-08-17T11:01:05;94612.25;;;31.91;37.55
6393;BME280;3229;42.674;23.282;2023-08-17T11:03:32;94598.75;;;31.97;36.88
6393;BME280;3229;42.674;23.282;2023-08-17T11:06:14;94613.34;;;31.90;37.19
6393;BME280;3229;42.674;23.282;2023-08-17T11:08:51;94538.75;;;31.43;37.05
6393;BME280;3229;42.674;23.282;2023-08-17T11:11:20;94605.16;;;31.91;37.23
6393;BME280;3229;42.674;23.282;2023-08-17T11:13:46;94599.59;;;31.88;37.35
6393;BME280;3229;42.674;23.282;2023-08-17T11:16:16;94592.91;;;32.01;37.23
6393;BME280;3229;42.674;23.282;2023-08-17T11:18:44;94594.19;;;32.08;37.26
6393;BME280;3229;42.674;23.282;2023-08-17T11:21:12;94601.81;;;32.15;37.27
6393;BME280;3229;42.674;23.282;2023-08-17T11:23:40;94595.44;;;32.16;37.65
6393;BME280;3229;42.674;23.282;2023-08-17T11:26:07;94590.63;;;32.23;37.83
6393;BME280;3229;42.674;23.282;2023-08-17T11:28:35;94553.06;;;32.21;38.36
6393;BME280;3229;42.674;23.282;2023-08-17T11:31:05;94581.75;;;32.48;38.28
6393;BME280;3229;42.674;23.282;2023-08-17T11:33:34;94557.56;;;32.20;38.33
6393;BME280;3229;42.674;23.282;2023-08-17T11:36:02;94578.97;;;32.24;38.50
6393;BME280;3229;42.674;23.282;2023-08-17T11:38:31;94582.16;;;32.21;38.52
6393;BME280;3229;42.674;23.282;2023-08-17T11:40:59;94547.31;;;32.14;38.98
6393;BME280;3229;42.674;23.282;2023-08-17T11:43:26;94581.25;;;32.41;38.55
6393;BME280;3229;42.674;23.282;2023-08-17T11:45:54;94574.16;;;32.31;38.98
6393;BME280;3229;42.674;23.282;2023-08-17T11:48:21;94583.84;;;32.46;38.72
6393;BME280;3229;42.674;23.282;2023-08-17T11:50:51;94573.56;;;32.44;37.97
6393;BME280;3229;42.674;23.282;2023-08-17T11:53:17;94577.56;;;32.37;38.06
6393;BME280;3229;42.674;23.282;2023-08-17T11:55:44;94570.09;;;32.10;38.21
6393;BME280;3229;42.674;23.282;2023-08-17T11:58:11;94577.00;;;32.06;38.82
6393;BME280;3229;42.674;23.282;2023-08-17T12:00:40;94579.94;;;32.04;39.20
6393;BME280;3229;42.674;23.282;2023-08-17T12:03:07;94577.50;;;32.08;39.21
6393;BME280;3229;42.674;23.282;2023-08-17T12:05:35;94576.13;;;32.15;39.40
6393;BME280;3229;42.674;23.282;2023-08-17T12:08:03;94567.66;;;32.18;38.97
6393;BME280;3229;42.674;23.282;2023-08-17T12:10:31;94555.19;;;32.19;39.33
6393;BME280;3229;42.674;23.282;2023-08-17T12:12:58;94559.84;;;32.32;39.09
6393;BME280;3229;42.674;23.282;2023-08-17T12:15:30;94567.75;;;32.37;38.79
6393;BME280;3229;42.674;23.282;2023-08-17T12:17:59;94559.03;;;32.37;39.16
6393;BME280;3229;42.674;23.282;2023-08-17T12:20:26;94558.97;;;32.47;39.25
6393;BME280;3229;42.674;23.282;2023-08-17T12:22:53;94558.69;;;32.49;39.05
6393;BME280;3229;42.674;23.282;2023-08-17T12:25:22;94557.97;;;32.43;38.92
6393;BME280;3229;42.674;23.282;2023-08-17T12:27:50;94550.47;;;32.50;39.06
6393;BME280;3229;42.674;23.282;2023-08-17T12:30:27;94542.63;;;32.69;38.33
6393;BME280;3229;42.674;23.282;2023-08-17T12:32:55;94535.66;;;32.78;38.27
6393;BME280;3229;42.674;23.282;2023-08-17T12:35:22;94547.13;;;32.97;38.04
6393;BME280;3229;42.674;23.282;2023-08-17T12:37:50;94551.53;;;32.78;40.33
6393;BME280;3229;42.674;23.282;2023-08-17T12:40:17;94549.75;;;32.68;40.58
6393;BME280;3229;42.674;23.282;2023-08-17T12:42:45;94556.72;;;32.64;40.30
6393;BME280;3229;42.674;23.282;2023-08-17T12:45:12;94557.06;;;32.82;39.83
6393;BME280;3229;42.674;23.282;2023-08-17T12:47:39;94553.56;;;32.86;40.43
6393;BME280;3229;42.674;23.282;2023-08-17T12:50:07;94499.47;;;32.39;40.08
6393;BME280;3229;42.674;23.282;2023-08-17T12:52:34;94561.16;;;32.69;39.78
6393;BME280;3229;42.674;23.282;2023-08-17T12:55:01;94561.66;;;32.71;41.65
6393;BME280;3229;42.674;23.282;2023-08-17T12:57:27;94547.75;;;32.55;42.67
6393;BME280;3229;42.674;23.282;2023-08-17T12:59:56;94563.47;;;32.46;43.31
6393;BME280;3229;42.674;23.282;2023-08-17T13:02:23;94558.75;;;32.43;43.92
6393;BME280;3229;42.674;23.282;2023-08-17T13:04:50;94560.63;;;32.38;44.11
6393;BME280;3229;42.674;23.282;2023-08-17T13:07:16;94555.84;;;32.40;43.99
6393;BME280;3229;42.674;23.282;2023-08-17T13:09:43;94561.19;;;32.30;44.03
6393;BME280;3229;42.674;23.282;2023-08-17T13:12:11;94555.69;;;32.21;44.35
6393;BME280;3229;42.674;23.282;2023-08-17T13:14:38;94562.84;;;32.26;44.43